KESN

Easton / Newnam Field Airport

Easton, Maryland, USA
METAR KESN 150327Z AUTO 29003KT 10SM CLR 24/21 A3000 RMK AO2 T02410206
Observed Flight Rules
Aug-15 @ 03:27 UTC (7 minutes ago) Visual Flight Rules
Wind Visibility Clouds
290° at 3 knots 10 miles
  • Clear skies
Temperatures Readings
Current 24°C / 75°F
Dewpoint 21°C / 70°F
Humidity 83%
Altimeter 30" Hg
Pressure 1016 hPa
Elevation 22
METAR KESN 150327Z AUTO 29003KT 10SM CLR 24/21 A3000 RMK AO2 T02410206
Observed Flight Rules
Aug-15 @ 03:27 UTC
(7 minutes ago)
VFR
Wind Visibility
290° at 3 knots 10 miles
Clouds
  • Clear skies
Temperature Dewpoint
24°C / 75°F 21°C / 70°F
Humidity Altimeter Pressure
83% 30" Hg 1016 hPa